createdAt,value
2022-12-18T00:00:10.500Z,11.17
2022-12-18T00:02:38.667Z,11.12
2022-12-18T00:05:07.990Z,11.03
2022-12-18T00:07:36.101Z,10.92
2022-12-18T00:10:04.306Z,10.99
2022-12-18T00:12:33.954Z,11.03
2022-12-18T00:15:02.003Z,10.77
2022-12-18T00:17:30.088Z,10.81
2022-12-18T00:19:58.205Z,10.73
2022-12-18T00:22:26.370Z,10.86
2022-12-18T00:24:54.516Z,10.72
2022-12-18T00:27:22.624Z,10.71
2022-12-18T00:29:52.236Z,10.67
2022-12-18T00:32:20.376Z,10.68
2022-12-18T00:34:48.475Z,10.68
2022-12-18T00:37:20.015Z,10.63
2022-12-18T00:39:50.709Z,10.63
2022-12-18T00:42:36.708Z,10.66
2022-12-18T00:45:12.304Z,10.68
2022-12-18T00:47:41.393Z,10.63
2022-12-18T00:50:10.876Z,10.56
2022-12-18T00:52:38.972Z,10.55
2022-12-18T00:55:08.023Z,10.54
2022-12-18T00:57:36.344Z,10.57
2022-12-18T01:00:06.727Z,10.53
2022-12-18T01:02:35.114Z,10.48
2022-12-18T01:05:03.610Z,10.46
2022-12-18T01:07:31.726Z,10.49
2022-12-18T01:09:59.779Z,10.44
2022-12-18T01:12:27.933Z,10.41
2022-12-18T01:14:56.089Z,10.28
2022-12-18T01:17:26.030Z,10.22
2022-12-18T01:19:54.167Z,10.16
2022-12-18T01:22:22.296Z,10.13
2022-12-18T01:24:50.672Z,10.17
2022-12-18T01:27:18.841Z,10.14
2022-12-18T01:29:46.954Z,10.16
2022-12-18T01:32:15.179Z,10.17
2022-12-18T01:34:44.702Z,10.03
2022-12-18T01:37:12.829Z,9.99
2022-12-18T01:39:41.051Z,9.89
2022-12-18T01:42:14.350Z,9.95
2022-12-18T01:45:02.111Z,9.90
2022-12-18T01:47:34.444Z,9.96
2022-12-18T01:50:08.453Z,9.89
2022-12-18T01:52:39.490Z,9.87
2022-12-18T01:55:10.045Z,9.88
2022-12-18T01:57:38.674Z,9.85
2022-12-18T02:00:10.705Z,9.86
2022-12-18T02:02:39.075Z,9.75
2022-12-18T02:05:10.498Z,9.73
2022-12-18T02:07:48.065Z,9.71
2022-12-18T02:10:22.273Z,9.78
2022-12-18T02:12:58.411Z,9.74
2022-12-18T02:15:34.174Z,9.70
2022-12-18T02:18:09.535Z,9.74
2022-12-18T02:20:44.498Z,9.71
2022-12-18T02:23:26.638Z,9.68
2022-12-18T02:26:10.753Z,9.64
2022-12-18T02:28:42.441Z,9.62
2022-12-18T02:31:16.642Z,9.69
2022-12-18T02:33:47.039Z,9.65
2022-12-18T02:36:17.014Z,9.63
2022-12-18T02:38:47.793Z,9.63
2022-12-18T02:41:18.973Z,9.59
2022-12-18T02:43:50.233Z,9.55
2022-12-18T02:46:36.787Z,9.60
2022-12-18T02:49:14.222Z,9.67
2022-12-18T02:51:53.235Z,9.70
2022-12-18T02:54:31.051Z,9.77
2022-12-18T02:57:11.991Z,9.76
2022-12-18T02:59:47.883Z,9.74
2022-12-18T03:02:23.472Z,9.83
2022-12-18T03:05:01.743Z,9.71
2022-12-18T03:07:40.095Z,9.66
2022-12-18T03:10:13.820Z,9.71
2022-12-18T03:12:48.182Z,9.60
2022-12-18T03:15:21.622Z,9.52
2022-12-18T03:17:54.779Z,9.51
2022-12-18T03:20:25.736Z,9.48
2022-12-18T03:22:58.058Z,9.56
2022-12-18T03:25:28.095Z,9.47
2022-12-18T03:28:01.241Z,9.55
2022-12-18T03:30:31.857Z,9.61
2022-12-18T03:33:08.112Z,9.55
2022-12-18T03:35:40.872Z,9.47
2022-12-18T03:38:09.477Z,9.57
2022-12-18T03:40:46.144Z,9.64
2022-12-18T03:43:23.242Z,9.68
2022-12-18T03:45:58.026Z,9.71
2022-12-18T03:48:32.663Z,9.58
2022-12-18T03:51:07.100Z,9.60
2022-12-18T03:53:42.802Z,9.51
2022-12-18T03:56:12.075Z,9.58
2022-12-18T03:58:43.891Z,9.47
2022-12-18T04:01:17.581Z,9.46
2022-12-18T04:03:48.680Z,9.49
2022-12-18T04:06:18.747Z,9.45
2022-12-18T04:08:48.095Z,9.49
2022-12-18T04:11:17.118Z,9.44
2022-12-18T04:13:46.625Z,9.23
2022-12-18T04:16:14.783Z,9.26
2022-12-18T04:18:43.064Z,9.28
2022-12-18T04:21:12.582Z,9.14
2022-12-18T04:23:41.168Z,9.06
2022-12-18T04:26:09.652Z,9.15
2022-12-18T04:28:37.778Z,9.14
2022-12-18T04:31:07.350Z,8.98
2022-12-18T04:33:38.024Z,8.87
2022-12-18T04:36:07.308Z,8.89
2022-12-18T04:38:35.800Z,8.93
2022-12-18T04:41:04.409Z,8.96
2022-12-18T04:43:33.958Z,8.93
2022-12-18T04:46:07.819Z,8.71
2022-12-18T04:48:36.929Z,8.56
2022-12-18T04:51:05.917Z,8.55
2022-12-18T04:53:34.101Z,8.48
2022-12-18T04:56:07.547Z,8.34
2022-12-18T04:58:35.631Z,8.37
2022-12-18T05:01:04.428Z,8.45
2022-12-18T05:03:34.149Z,8.40
2022-12-18T05:06:02.726Z,8.21
2022-12-18T05:08:30.846Z,8.17
2022-12-18T05:11:02.903Z,8.15
2022-12-18T05:13:32.268Z,7.99
2022-12-18T05:16:00.656Z,7.93
2022-12-18T05:18:29.304Z,7.67
2022-12-18T05:20:59.294Z,7.71
2022-12-18T05:23:27.927Z,7.60
2022-12-18T05:25:57.327Z,7.68
2022-12-18T05:28:27.495Z,7.48
2022-12-18T05:30:57.462Z,7.64
2022-12-18T05:33:28.483Z,7.36
2022-12-18T05:36:00.239Z,7.32
2022-12-18T05:38:29.283Z,7.30
2022-12-18T05:40:58.882Z,7.03
2022-12-18T05:43:28.463Z,7.15
2022-12-18T05:45:57.978Z,7.00
2022-12-18T05:48:26.508Z,6.95
2022-12-18T05:50:54.689Z,6.82
2022-12-18T05:53:24.227Z,6.70
2022-12-18T05:55:52.503Z,6.79
2022-12-18T05:58:20.742Z,6.86
2022-12-18T06:00:49.417Z,6.91
2022-12-18T06:03:17.807Z,6.56
2022-12-18T06:05:47.160Z,6.54
2022-12-18T06:08:16.130Z,6.39
2022-12-18T06:10:53.506Z,6.44
2022-12-18T06:13:22.310Z,6.46
2022-12-18T06:15:50.609Z,6.40
2022-12-18T06:18:18.932Z,6.45
2022-12-18T06:20:47.086Z,6.49
2022-12-18T06:23:15.204Z,6.56
2022-12-18T06:25:43.583Z,6.40
2022-12-18T06:28:13.142Z,6.24
2022-12-18T06:30:41.446Z,6.17
2022-12-18T06:33:09.674Z,6.06
2022-12-18T06:35:37.842Z,6.14
2022-12-18T06:38:06.076Z,6.33
2022-12-18T06:40:34.394Z,6.14
2022-12-18T06:43:02.833Z,6.11
2022-12-18T06:45:32.412Z,6.10
2022-12-18T06:48:00.581Z,6.07
2022-12-18T06:50:29.136Z,6.05
2022-12-18T06:52:57.407Z,6.21
2022-12-18T06:55:25.591Z,6.21
2022-12-18T06:57:53.869Z,6.17
2022-12-18T07:00:22.156Z,6.11
2022-12-18T07:02:51.875Z,6.07
2022-12-18T07:05:20.063Z,6.07
2022-12-18T07:07:48.227Z,6.12
2022-12-18T07:10:16.296Z,6.24
2022-12-18T07:12:44.427Z,6.38
2022-12-18T07:15:12.882Z,6.34
2022-12-18T07:17:41.048Z,6.31
2022-12-18T07:20:12.398Z,6.30
2022-12-18T07:22:40.654Z,6.32
2022-12-18T07:25:09.833Z,6.45
2022-12-18T07:27:37.950Z,6.53
2022-12-18T07:30:07.723Z,6.61
2022-12-18T07:32:36.992Z,6.51
2022-12-18T07:35:05.716Z,6.51
2022-12-18T07:37:35.229Z,6.44
2022-12-18T07:40:04.679Z,6.49
2022-12-18T07:42:32.807Z,6.52
2022-12-18T07:45:01.260Z,6.56
2022-12-18T07:47:37.249Z,6.57
2022-12-18T07:50:05.779Z,6.25
2022-12-18T07:52:35.412Z,6.27
2022-12-18T07:55:03.520Z,6.21
2022-12-18T08:00:21.458Z,6.24
2022-12-18T08:02:49.626Z,6.19
2022-12-18T08:05:17.996Z,6.12
2022-12-18T08:07:47.709Z,6.23
2022-12-18T08:10:15.885Z,6.34
2022-12-18T08:12:44.446Z,6.38
2022-12-18T08:15:13.176Z,6.53
2022-12-18T08:17:41.268Z,6.27
2022-12-18T08:20:10.727Z,6.44
2022-12-18T08:22:38.884Z,6.55
2022-12-18T08:25:09.701Z,6.66
2022-12-18T08:27:38.086Z,6.54
2022-12-18T08:30:07.450Z,6.60
2022-12-18T08:32:35.705Z,6.72
2022-12-18T08:35:03.955Z,6.72
2022-12-18T08:37:32.219Z,6.69
2022-12-18T08:40:00.425Z,6.71
2022-12-18T08:42:47.236Z,6.77
2022-12-18T08:45:16.242Z,6.59
2022-12-18T08:47:44.904Z,6.66
2022-12-18T08:50:13.483Z,6.84
2022-12-18T08:52:41.545Z,6.68
2022-12-18T08:55:11.153Z,6.60
2022-12-18T08:57:40.797Z,6.61
2022-12-18T09:00:10.491Z,6.61
2022-12-18T09:02:38.813Z,6.73
2022-12-18T09:05:07.929Z,6.70
2022-12-18T09:07:36.103Z,6.78
2022-12-18T09:10:04.408Z,6.67
2022-12-18T09:12:32.754Z,6.66
2022-12-18T09:15:02.356Z,6.60
2022-12-18T09:17:30.575Z,6.48
2022-12-18T09:19:58.869Z,6.46
2022-12-18T09:22:26.974Z,6.45
2022-12-18T09:24:55.258Z,6.56
2022-12-18T09:27:23.750Z,6.71
2022-12-18T09:29:52.114Z,6.83
2022-12-18T09:32:22.770Z,6.74
2022-12-18T09:34:51.102Z,6.69
2022-12-18T09:37:19.509Z,6.74
2022-12-18T09:39:47.715Z,6.71
2022-12-18T09:42:22.803Z,6.71
2022-12-18T09:44:54.464Z,6.42
2022-12-18T09:47:27.925Z,6.76
2022-12-18T09:50:00.283Z,6.68
2022-12-18T09:52:32.332Z,6.63
2022-12-18T09:55:08.776Z,6.50
2022-12-18T09:57:41.832Z,6.63
2022-12-18T10:00:18.707Z,6.65
2022-12-18T10:02:50.850Z,6.54
2022-12-18T10:05:22.939Z,6.67
2022-12-18T10:07:57.709Z,6.76
2022-12-18T10:10:34.149Z,6.78
2022-12-18T10:13:11.676Z,6.92
2022-12-18T10:15:48.808Z,6.98
2022-12-18T10:18:27.914Z,6.82
2022-12-18T10:21:02.288Z,6.94
2022-12-18T10:23:46.411Z,6.79
2022-12-18T10:26:16.437Z,6.68
2022-12-18T10:28:46.424Z,6.78
2022-12-18T10:31:19.093Z,6.99
2022-12-18T10:33:48.964Z,6.89
2022-12-18T10:36:17.405Z,7.14
2022-12-18T10:38:45.573Z,7.14
2022-12-18T10:41:29.266Z,6.84
2022-12-18T10:44:19.138Z,6.75
2022-12-18T10:46:49.024Z,6.70
2022-12-18T10:49:27.786Z,6.65
2022-12-18T10:52:09.481Z,6.49
2022-12-18T10:54:38.676Z,6.78
2022-12-18T10:57:31.997Z,6.47
2022-12-18T11:00:01.310Z,6.68
2022-12-18T11:02:36.163Z,6.77
2022-12-18T11:05:24.785Z,7.05
2022-12-18T11:07:55.410Z,7.06
2022-12-18T11:10:25.885Z,7.02
2022-12-18T11:12:54.809Z,6.97
2022-12-18T11:15:28.807Z,6.69
2022-12-18T11:17:56.986Z,6.76
2022-12-18T11:20:36.086Z,6.75
2022-12-18T11:23:07.173Z,6.86
2022-12-18T11:25:36.536Z,6.89
2022-12-18T11:28:07.185Z,6.58
2022-12-18T11:30:37.315Z,6.54
2022-12-18T11:33:08.546Z,6.65
2022-12-18T11:35:47.959Z,6.74
2022-12-18T11:38:23.925Z,6.54
2022-12-18T11:40:58.109Z,6.50
2022-12-18T11:43:30.871Z,6.57
2022-12-18T11:46:06.829Z,6.67
2022-12-18T11:48:40.288Z,6.40
2022-12-18T11:51:16.948Z,6.46
2022-12-18T11:53:45.042Z,6.64
2022-12-18T11:56:29.850Z,6.67
2022-12-18T11:59:09.655Z,6.44
2022-12-18T12:01:48.969Z,6.43
2022-12-18T12:04:40.604Z,6.41
2022-12-18T12:07:20.914Z,6.34
2022-12-18T12:10:00.681Z,6.35
2022-12-18T12:12:49.033Z,6.60
2022-12-18T12:15:28.254Z,6.66
2022-12-18T12:18:08.159Z,6.42
2022-12-18T12:20:52.692Z,6.64
2022-12-18T12:23:36.970Z,6.71
2022-12-18T12:26:09.949Z,6.72
2022-12-18T12:28:59.563Z,6.72
2022-12-18T12:31:45.206Z,6.62
2022-12-18T12:34:20.449Z,6.68
2022-12-18T12:37:04.110Z,6.72
2022-12-18T12:39:39.471Z,6.49
2022-12-18T12:42:32.983Z,6.57
2022-12-18T12:45:07.266Z,6.49
2022-12-18T12:47:40.601Z,6.51
2022-12-18T12:50:16.946Z,6.41
2022-12-18T12:52:49.748Z,6.21
2022-12-18T12:55:22.424Z,6.31
2022-12-18T12:58:01.975Z,6.20
2022-12-18T13:00:40.135Z,6.20
2022-12-18T13:03:16.685Z,6.09
2022-12-18T13:05:53.445Z,5.90
2022-12-18T13:08:27.762Z,5.90
2022-12-18T13:11:15.669Z,5.89
2022-12-18T13:13:52.930Z,5.82
2022-12-18T13:16:22.841Z,5.77
2022-12-18T13:18:52.479Z,5.65
2022-12-18T13:21:25.886Z,5.62
2022-12-18T13:23:54.446Z,5.65
2022-12-18T13:26:35.417Z,5.57
2022-12-18T13:29:05.260Z,5.60
2022-12-18T13:32:10.205Z,5.63
2022-12-18T13:34:38.543Z,5.59
2022-12-18T13:37:43.794Z,5.61
2022-12-18T13:40:59.844Z,5.42
2022-12-18T13:43:41.786Z,5.39
2022-12-18T13:46:22.479Z,5.39
2022-12-18T13:48:54.475Z,5.33
2022-12-18T13:51:23.919Z,5.29
2022-12-18T13:53:54.217Z,5.31
2022-12-18T13:56:25.790Z,5.32
2022-12-18T13:59:25.299Z,5.38
2022-12-18T14:01:56.814Z,5.41
2022-12-18T14:04:29.074Z,5.35
2022-12-18T14:07:05.165Z,5.37
2022-12-18T14:09:37.294Z,5.35
2022-12-18T14:12:25.355Z,5.30
2022-12-18T14:14:55.641Z,5.25
2022-12-18T14:17:25.314Z,5.24
2022-12-18T14:19:54.246Z,5.21
2022-12-18T14:22:30.592Z,5.24
2022-12-18T14:25:17.641Z,5.34
2022-12-18T14:27:47.996Z,5.37
2022-12-18T14:30:37.355Z,5.25
2022-12-18T14:33:07.326Z,5.20
2022-12-18T14:35:38.780Z,5.22
2022-12-18T14:38:22.478Z,5.27
2022-12-18T14:40:55.162Z,5.26
2022-12-18T14:43:25.075Z,5.27
2022-12-18T14:45:54.872Z,5.25
2022-12-18T14:48:27.346Z,5.39
2022-12-18T14:51:01.814Z,5.40
2022-12-18T14:53:36.356Z,5.40
2022-12-18T14:56:06.916Z,5.35
2022-12-18T14:58:35.463Z,5.25
2022-12-18T15:01:05.643Z,5.19
2022-12-18T15:03:34.028Z,5.24
2022-12-18T15:06:19.746Z,5.20
2022-12-18T15:08:48.051Z,5.25
2022-12-18T15:11:31.164Z,5.08
2022-12-18T15:14:00.677Z,5.03
2022-12-18T15:16:30.424Z,4.94
2022-12-18T15:18:58.641Z,4.79
2022-12-18T15:21:26.938Z,4.83
2022-12-18T15:23:55.549Z,4.99
2022-12-18T15:26:24.679Z,4.93
2022-12-18T15:28:56.134Z,4.91
2022-12-18T15:31:30.428Z,5.00
2022-12-18T15:34:14.917Z,4.93
2022-12-18T15:36:43.168Z,4.89
2022-12-18T15:39:14.818Z,5.01
2022-12-18T15:42:03.221Z,4.95
2022-12-18T15:44:30.348Z,4.89
2022-12-18T15:46:58.773Z,4.84
2022-12-18T15:49:28.539Z,4.95
2022-12-18T15:52:00.573Z,4.92
2022-12-18T15:55:01.111Z,4.91
2022-12-18T15:57:29.250Z,4.84
2022-12-18T15:59:59.506Z,4.90
2022-12-18T16:02:29.332Z,4.87
2022-12-18T16:04:59.820Z,4.89
2022-12-18T16:07:30.580Z,4.94
2022-12-18T16:09:59.418Z,4.90
2022-12-18T16:12:30.621Z,4.88
2022-12-18T16:14:58.684Z,4.93
2022-12-18T16:17:27.081Z,4.95
2022-12-18T16:19:55.256Z,4.85
2022-12-18T16:22:27.859Z,4.92
2022-12-18T16:24:57.509Z,4.94
2022-12-18T16:27:26.681Z,4.85
2022-12-18T16:29:55.065Z,4.77
2022-12-18T16:32:24.497Z,4.77
2022-12-18T16:34:52.813Z,4.70
2022-12-18T16:37:21.160Z,4.68
2022-12-18T16:39:50.790Z,4.55
2022-12-18T16:42:21.250Z,4.66
2022-12-18T16:44:50.990Z,4.69
2022-12-18T16:47:19.912Z,4.77
2022-12-18T16:49:51.935Z,4.77
2022-12-18T16:52:20.507Z,4.60
2022-12-18T16:54:48.935Z,4.66
2022-12-18T16:57:20.446Z,4.58
2022-12-18T16:59:50.235Z,4.56
2022-12-18T17:02:23.416Z,4.49
2022-12-18T17:04:55.327Z,4.50
2022-12-18T17:07:23.427Z,4.47
2022-12-18T17:09:51.969Z,4.41
2022-12-18T17:12:22.144Z,4.39
2022-12-18T17:14:50.533Z,4.28
2022-12-18T17:17:21.732Z,4.36
2022-12-18T17:19:50.398Z,4.32
2022-12-18T17:22:18.714Z,4.26
2022-12-18T17:24:48.090Z,4.20
2022-12-18T17:27:16.580Z,4.28
2022-12-18T17:29:48.344Z,4.21
2022-12-18T17:32:17.479Z,4.25
2022-12-18T17:34:46.128Z,4.19
2022-12-18T17:37:15.496Z,4.12
2022-12-18T17:39:43.656Z,4.08
2022-12-18T17:42:14.794Z,4.08
2022-12-18T17:44:45.479Z,4.04
2022-12-18T17:47:13.787Z,4.02
2022-12-18T17:49:42.165Z,4.08
2022-12-18T17:52:10.575Z,4.12
2022-12-18T17:54:41.520Z,4.20
2022-12-18T17:57:10.347Z,4.21
2022-12-18T17:59:38.793Z,4.26
2022-12-18T18:02:08.641Z,4.21
2022-12-18T18:04:37.067Z,4.11
2022-12-18T18:07:05.277Z,4.02
2022-12-18T18:09:33.469Z,3.99
2022-12-18T18:12:19.084Z,4.02
2022-12-18T18:14:47.378Z,4.08
2022-12-18T18:17:17.239Z,4.07
2022-12-18T18:19:49.454Z,3.92
2022-12-18T18:22:18.084Z,3.88
2022-12-18T18:24:47.042Z,3.84
2022-12-18T18:27:15.369Z,3.86
2022-12-18T18:29:43.592Z,3.93
2022-12-18T18:32:11.764Z,3.89
2022-12-18T18:34:41.464Z,3.90
2022-12-18T18:37:10.893Z,3.89
2022-12-18T18:39:39.367Z,3.93
2022-12-18T18:42:07.650Z,3.90
2022-12-18T18:44:36.587Z,3.92
2022-12-18T18:47:06.321Z,3.86
2022-12-18T18:49:37.945Z,3.92
2022-12-18T18:52:08.554Z,3.84
2022-12-18T18:54:36.880Z,3.93
2022-12-18T18:57:20.930Z,3.90
2022-12-18T18:59:49.988Z,3.87
2022-12-18T19:02:19.107Z,3.89
2022-12-18T19:04:47.481Z,3.70
2022-12-18T19:07:29.888Z,3.81
2022-12-18T19:10:04.713Z,3.58
2022-12-18T19:12:51.974Z,3.46
2022-12-18T19:15:20.371Z,3.47
2022-12-18T19:17:48.875Z,3.40
2022-12-18T19:20:17.616Z,3.34
2022-12-18T19:22:54.979Z,3.34
2022-12-18T19:25:28.144Z,3.32
2022-12-18T19:28:13.216Z,3.26
2022-12-18T19:30:51.431Z,3.25
2022-12-18T19:33:42.240Z,3.31
2022-12-18T19:36:13.674Z,3.30
2022-12-18T19:38:44.962Z,3.32
2022-12-18T19:41:14.923Z,3.35
2022-12-18T19:43:43.573Z,3.19
2022-12-18T19:46:14.724Z,3.22
2022-12-18T19:48:44.137Z,3.24
2022-12-18T19:51:15.442Z,3.13
2022-12-18T19:53:45.540Z,3.23
2022-12-18T19:56:15.967Z,3.19
2022-12-18T19:58:45.244Z,3.11
2022-12-18T20:01:16.252Z,3.22
2022-12-18T20:03:46.749Z,3.11
2022-12-18T20:06:25.057Z,3.22
2022-12-18T20:09:00.074Z,3.24
2022-12-18T20:11:29.500Z,3.12
2022-12-18T20:13:57.777Z,3.11
2022-12-18T20:16:25.962Z,3.01
2022-12-18T20:18:55.466Z,3.07
2022-12-18T20:21:24.273Z,3.05
2022-12-18T20:23:54.950Z,3.03
2022-12-18T20:26:23.356Z,3.09
2022-12-18T20:28:51.731Z,3.04
2022-12-18T20:31:20.016Z,2.94
2022-12-18T20:33:49.993Z,2.97
2022-12-18T20:36:23.600Z,2.87
2022-12-18T20:38:57.238Z,2.95
2022-12-18T20:41:38.224Z,2.92
2022-12-18T20:44:10.941Z,2.92
2022-12-18T20:46:56.532Z,3.00
2022-12-18T20:49:26.325Z,2.82
2022-12-18T20:51:56.551Z,2.88
2022-12-18T20:54:27.670Z,2.89
2022-12-18T20:56:56.205Z,2.88
2022-12-18T20:59:25.743Z,2.87
2022-12-18T21:01:55.721Z,2.85
2022-12-18T21:04:24.351Z,2.77
2022-12-18T21:07:01.898Z,2.72
2022-12-18T21:09:37.327Z,2.67
2022-12-18T21:12:25.771Z,2.66
2022-12-18T21:14:53.906Z,2.70
2022-12-18T21:17:22.146Z,2.60
2022-12-18T21:19:50.288Z,2.65
2022-12-18T21:22:19.229Z,2.47
2022-12-18T21:24:49.079Z,2.54
2022-12-18T21:27:17.980Z,2.53
2022-12-18T21:29:47.247Z,2.70
2022-12-18T21:32:16.084Z,2.60
2022-12-18T21:34:48.013Z,2.47
2022-12-18T21:37:16.827Z,2.48
2022-12-18T21:39:45.089Z,2.37
2022-12-18T21:42:31.880Z,2.45
2022-12-18T21:45:00.271Z,2.28
2022-12-18T21:47:28.405Z,2.47
2022-12-18T21:49:56.566Z,2.50
2022-12-18T21:52:31.582Z,2.38
2022-12-18T21:55:08.423Z,2.28
2022-12-18T21:57:40.201Z,2.18
2022-12-18T22:00:18.480Z,2.13
2022-12-18T22:02:47.287Z,2.23
2022-12-18T22:05:15.708Z,2.11
2022-12-18T22:07:44.363Z,2.18
2022-12-18T22:10:12.575Z,2.11
2022-12-18T22:12:44.445Z,2.07
2022-12-18T22:15:21.343Z,2.06
2022-12-18T22:17:50.940Z,1.94
2022-12-18T22:20:20.028Z,2.10
2022-12-18T22:22:48.576Z,2.09
2022-12-18T22:25:16.872Z,2.00
2022-12-18T22:28:07.266Z,1.92
2022-12-18T22:30:34.491Z,1.81
2022-12-18T22:33:02.807Z,1.81
2022-12-18T22:35:30.866Z,1.76
2022-12-18T22:37:59.779Z,1.77
2022-12-18T22:40:28.658Z,1.73
2022-12-18T22:42:58.231Z,1.69
2022-12-18T22:45:27.317Z,1.71
2022-12-18T22:47:55.706Z,1.87
2022-12-18T22:50:23.890Z,1.92
2022-12-18T22:52:52.090Z,2.00
2022-12-18T22:55:20.551Z,1.90
2022-12-18T22:57:49.385Z,1.98
2022-12-18T23:00:24.641Z,1.83
2022-12-18T23:02:59.710Z,1.84
2022-12-18T23:05:30.215Z,1.82
2022-12-18T23:07:58.663Z,1.80
2022-12-18T23:10:27.550Z,1.86
2022-12-18T23:12:56.044Z,1.83
2022-12-18T23:15:28.040Z,1.70
2022-12-18T23:17:58.244Z,1.46
2022-12-18T23:20:27.449Z,1.42
2022-12-18T23:22:55.742Z,1.48
2022-12-18T23:25:24.397Z,1.66
2022-12-18T23:27:52.904Z,1.71
2022-12-18T23:30:21.210Z,1.48
2022-12-18T23:32:50.782Z,1.45
2022-12-18T23:35:19.334Z,1.50
2022-12-18T23:38:03.946Z,1.49
2022-12-18T23:40:32.242Z,1.57
2022-12-18T23:43:00.806Z,1.56
2022-12-18T23:45:28.980Z,1.34
2022-12-18T23:47:58.793Z,1.24
2022-12-18T23:50:28.786Z,1.31
2022-12-18T23:53:04.922Z,1.41
2022-12-18T23:55:38.794Z,1.45
2022-12-18T23:58:07.094Z,1.24
